NCAR-RAP Real-Time Weather Data

Output produced by METARs form (17 September 2019  17:16 UTC)
found at http://weather.rap.ucar.edu/surface/
 
KBFF 171653Z AUTO VRB03KT 10SM FEW110 22/11 A2987 RMK AO2 SLP074 T02170106
KBFF 171553Z AUTO 00000KT 10SM BKN110 19/11 A2987 RMK AO2 LTG DSNT NE SLP077 T01890111
KBFF 171453Z AUTO 26004KT 10SM BKN110 17/11 A2987 RMK AO2 SLP077 T01720106 53009
KBFF 171353Z AUTO 29003KT 10SM CLR 16/10 A2986 RMK AO2 SLP072 T01610100
KBFF 171253Z AUTO 33006KT 10SM CLR 12/10 A2985 RMK AO2 SLP070 T01220100 $
KBFF 171153Z AUTO 00000KT 10SM CLR 12/10 A2984 RMK AO2 SLP063 T01220100 10172 20117 55000 $
KBFF 171053Z AUTO 36003KT 10SM CLR 12/10 A2983 RMK AO2 SLP057 T01220100 $
KBFF 170953Z AUTO 33006KT 10SM CLR 13/10 A2984 RMK AO2 SLP059 T01280100 $
KBFF 170853Z AUTO 00000KT 10SM CLR 14/10 A2984 RMK AO2 SLP058 T01440100 53004 $
KBFF 170753Z AUTO 36004KT 10SM CLR 15/11 A2983 RMK AO2 SLP056 T01500106 $
KBFF 170653Z AUTO 06005KT 10SM CLR 16/11 A2983 RMK AO2 SLP057 T01610106 403110139 $
KBFF 170553Z AUTO 09006KT 10SM CLR 17/12 A2983 RMK AO2 SLP058 T01720117 10278 20172 58002 $
KBFF 170453Z AUTO 08006KT 10SM CLR 17/12 A2983 RMK AO2 SLP060 T01720117 $
KBFF 170353Z AUTO 08004KT 10SM CLR 19/13 A2984 RMK AO2 SLP063 T01890133 $
KBFF 170253Z AUTO 10005KT 10SM CLR 19/14 A2983 RMK AO2 SLP064 T01890139 53004 $
KBFF 170053Z AUTO 09006KT 9SM CLR 24/14 A2982 RMK AO2 SLP058 T02390144 $
KBFF 162353Z AUTO 11005KT 10SM CLR 28/12 A2982 RMK AO2 SLP052 T02780117 10311 20233 55008 $
KBFF 162253Z AUTO 11007KT 10SM CLR 31/10 A2982 RMK AO2 PK WND 20026/2203 SLP050 T03060100 $
KBFF 162153Z AUTO 10SM CLR 31/11 A2983 RMK AO2 SLP051 T03060111 $